Time;durP1;ratioP1;P1;durP2;ratioP2;P2;SDS_P1;SDS_P2;PMS_P1;PMS_P2;Temp;Humidity;BMP_temperature;BMP_pressure;BME280_temperature;BME280_humidity;BME280_pressure;Samples;Min_cycle;Max_cycle;Signal;HPM_P1;HPM_P2
2022/12/24 00:00:56;;;;;;;78.30;66.30;;;;;;;6.96;78.20;99228.69;108522;1279;21982;-81
2022/12/24 00:03:37;;;;;;;;;;;;;;;6.95;78.32;99227.36;108729;1280;21986;-83
2022/12/24 00:06:21;;;;;;;79.30;67.70;;;;;;;6.87;78.63;99231.14;108642;1279;22885;-82
2022/12/24 00:08:59;;;;;;;77.00;65.50;;;;;;;6.88;78.79;99220.74;108595;1280;21935;-82
2022/12/24 00:11:50;;;;;;;72.40;63.80;;;;;;;6.91;78.74;99216.83;108636;1274;21997;-82
2022/12/24 00:14:24;;;;;;;78.50;67.10;;;;;;;6.93;78.86;99220.02;108438;1279;21951;-83
2022/12/24 00:16:56;;;;;;;80.40;67.10;;;;;;;6.98;78.91;99226.19;108251;1280;23601;-81
2022/12/24 00:19:31;;;;;;;86.20;71.90;;;;;;;7.03;78.93;99227.38;108130;1285;22291;-81
2022/12/24 00:22:11;;;;;;;111.20;84.40;;;;;;;7.05;78.89;99225.77;108289;1278;23612;-81
2022/12/24 00:24:54;;;;;;;82.80;69.20;;;;;;;7.05;78.95;99221.44;108356;1285;22047;-81
2022/12/24 00:27:38;;;;;;;76.50;63.80;;;;;;;7.07;79.02;99223.77;107786;1291;23768;-81
2022/12/24 00:30:14;;;;;;;66.10;57.60;;;;;;;7.09;78.97;99226.79;107764;1276;23341;-81
2022/12/24 00:32:57;;;;;;;64.80;55.60;;;;;;;7.13;79.00;99228.73;107811;1286;21938;-82
2022/12/24 00:35:40;;;;;;;63.50;52.70;;;;;;;7.14;78.89;99226.23;108123;1286;21813;-83
2022/12/24 00:38:18;;;;;;;65.40;51.10;;;;;;;7.13;78.85;99232.34;108381;1280;21932;-81
2022/12/24 00:41:01;;;;;;;68.20;57.70;;;;;;;7.12;78.94;99235.69;108543;1278;21956;-82
2022/12/24 00:43:52;;;;;;;70.10;57.30;;;;;;;7.12;79.06;99241.55;108529;1280;22004;-82
2022/12/24 00:46:35;;;;;;;67.60;56.80;;;;;;;7.12;79.10;99241.74;108727;1277;23126;-82
2022/12/24 00:49:17;;;;;;;69.00;57.00;;;;;;;7.12;79.11;99244.33;108886;1272;21937;-82
2022/12/24 00:51:51;;;;;;;62.60;53.80;;;;;;;7.14;79.20;99246.50;108797;1275;22355;-81
2022/12/24 00:54:52;;;;;;;59.10;51.20;;;;;;;7.13;79.17;99246.36;108536;1280;21937;-81
2022/12/24 00:57:23;;;;;;;59.50;50.20;;;;;;;7.13;79.16;99246.01;108519;1280;23868;-81
2022/12/24 01:00:04;;;;;;;57.30;50.30;;;;;;;7.13;79.17;99244.42;108492;1280;21935;-81
2022/12/24 01:02:52;;;;;;;;;;;;;;;;;;;;;
2022/12/24 01:05:38;;;;;;;49.40;43.70;;;;;;;7.19;79.31;99246.45;108432;1280;21957;-81
2022/12/24 01:08:23;;;;;;;50.20;44.80;;;;;;;7.21;79.28;99246.20;108490;1280;21931;-80
2022/12/24 01:11:01;;;;;;;51.40;45.30;;;;;;;7.23;79.30;99242.99;108331;1280;21934;-80
2022/12/24 01:13:34;;;;;;;53.80;45.90;;;;;;;7.25;79.25;99245.70;108485;1280;22308;-82
2022/12/24 01:16:27;;;;;;;49.40;44.20;;;;;;;7.26;79.22;99247.21;108601;1278;22120;-82
2022/12/24 01:19:31;;;;;;;48.40;43.30;;;;;;;7.25;79.32;99250.88;108743;1268;21938;-80
2022/12/24 01:22:06;;;;;;;49.70;42.90;;;;;;;7.27;79.27;99247.34;108849;1276;21923;-83
2022/12/24 01:24:45;;;;;;;66.70;53.30;;;;;;;7.31;79.32;99245.63;108824;1278;21957;-82
2022/12/24 01:27:28;;;;;;;80.00;56.90;;;;;;;7.31;79.33;99241.80;108459;1278;23592;-83
2022/12/24 01:30:10;;;;;;;95.20;63.70;;;;;;;7.31;79.27;99239.73;108602;1280;21982;-81
2022/12/24 01:32:48;;;;;;;87.80;57.30;;;;;;;7.30;79.27;99234.41;108474;1280;21940;-83
2022/12/24 01:35:32;;;;;;;82.30;56.40;;;;;;;7.31;79.37;99227.61;108515;1281;21950;-81
2022/12/24 01:38:25;;;;;;;90.80;60.00;;;;;;;7.31;79.25;99228.80;108583;1282;21974;-83
2022/12/24 01:44:13;;;;;;;90.50;61.20;;;;;;;7.29;79.44;99228.41;108578;1280;21935;-81
2022/12/24 01:46:47;;;;;;;80.80;55.90;;;;;;;7.30;79.53;99226.29;108890;1276;21925;-82
2022/12/24 01:49:22;;;;;;;78.60;55.50;;;;;;;7.35;79.44;99224.31;108690;1277;21970;-82
2022/12/24 01:52:14;;;;;;;82.90;56.80;;;;;;;7.35;79.41;99225.90;108840;1276;22484;-82
2022/12/24 01:54:55;;;;;;;78.10;54.70;;;;;;;7.36;79.41;99228.76;108827;1272;22416;-82
2022/12/24 01:57:48;;;;;;;69.50;49.80;;;;;;;7.38;79.40;99224.70;108820;1266;21940;-82
2022/12/24 02:00:35;;;;;;;58.40;47.00;;;;;;;7.37;79.45;99221.97;108822;1277;23747;-82
2022/12/24 02:03:11;;;;;;;54.30;47.30;;;;;;;7.39;79.47;99221.72;108817;1276;21908;-82
2022/12/24 02:06:00;;;;;;;50.80;44.90;;;;;;;7.38;79.38;99222.27;108756;1278;22880;-82
2022/12/24 02:08:41;;;;;;;47.40;42.30;;;;;;;7.37;79.41;99225.43;108541;1281;23097;-81
2022/12/24 02:11:23;;;;;;;43.80;39.30;;;;;;;7.37;79.47;99226.84;108543;1281;22153;-80
2022/12/24 02:14:01;;;;;;;47.50;41.20;;;;;;;7.38;79.44;99225.75;108568;1281;21936;-80
2022/12/24 02:16:56;;;;;;;46.30;41.50;;;;;;;7.37;79.41;99223.72;108519;1281;23679;-80
2022/12/24 02:20:07;;;;;;;46.60;41.70;;;;;;;7.41;79.46;99220.41;108576;1276;21946;-81
2022/12/24 02:23:20;;;;;;;47.70;42.50;;;;;;;7.39;79.44;99219.32;108749;1273;22658;-81
2022/12/24 02:26:22;;;;;;;52.40;46.80;;;;;;;7.38;79.48;99213.65;108470;1280;23769;-81
2022/12/24 02:29:25;;;;;;;56.80;50.20;;;;;;;7.36;79.43;99214.09;108604;1280;21980;-79
2022/12/24 02:32:11;;;;;;;50.60;45.10;;;;;;;7.33;79.40;99214.20;108601;1279;24037;-81
2022/12/24 02:34:54;;;;;;;60.10;51.70;;;;;;;7.28;79.31;99217.17;108302;1280;21944;-80
2022/12/24 02:37:42;;;;;;;64.00;53.40;;;;;;;7.25;79.37;99214.02;107836;1284;21959;-82
2022/12/24 02:40:51;;;;;;;59.90;52.10;;;;;;;7.25;79.41;99216.95;107902;1286;21755;-81
2022/12/24 02:43:28;;;;;;;57.00;50.80;;;;;;;7.25;79.54;99216.80;108130;1281;21951;-81
2022/12/24 02:46:24;;;;;;;56.20;50.00;;;;;;;7.31;79.60;99216.05;108509;1280;21933;-81
2022/12/24 02:49:01;;;;;;;55.70;49.90;;;;;;;7.29;79.56;99218.52;108403;1281;21993;-81
2022/12/24 02:51:35;;;;;;;52.40;46.80;;;;;;;7.30;79.44;99218.49;108442;1283;21947;-81
2022/12/24 02:54:14;;;;;;;52.50;47.00;;;;;;;7.29;79.41;99215.77;108361;1282;23756;-81
2022/12/24 02:57:10;;;;;;;48.90;43.50;;;;;;;7.29;79.43;99215.56;108817;1274;21933;-81
2022/12/24 02:59:56;;;;;;;50.20;44.90;;;;;;;7.33;79.56;99215.40;108926;1275;21955;-82
2022/12/24 03:03:12;;;;;;;51.00;45.70;;;;;;;7.35;79.60;99216.03;108978;1275;21929;-80
2022/12/24 03:06:10;;;;;;;47.60;42.80;;;;;;;7.36;79.48;99217.02;108816;1275;22167;-81
2022/12/24 03:09:01;;;;;;;49.50;44.30;;;;;;;7.35;79.37;99217.39;108609;1275;22704;-80
2022/12/24 03:11:32;;;;;;;50.50;45.20;;;;;;;7.35;79.38;99221.73;108648;1275;23660;-80
2022/12/24 03:14:02;;;;;;;48.40;43.30;;;;;;;7.35;79.37;99224.67;108762;1275;21951;-80
2022/12/24 03:16:32;;;;;;;49.10;43.80;;;;;;;7.33;79.25;99225.12;108656;1275;21927;-81
2022/12/24 03:19:02;;;;;;;49.30;44.30;;;;;;;7.27;79.20;99225.35;108683;1276;23410;-80
2022/12/24 03:21:37;;;;;;;46.30;41.40;;;;;;;7.24;79.32;99224.77;108600;1278;23352;-80
2022/12/24 03:24:08;;;;;;;45.50;40.60;;;;;;;7.21;79.36;99225.98;108533;1277;21994;-81
2022/12/24 03:26:47;;;;;;;45.30;40.40;;;;;;;7.15;79.35;99224.48;108819;1277;21911;-80
2022/12/24 03:29:41;;;;;;;43.90;38.50;;;;;;;7.08;79.40;99221.46;108663;1276;21944;-82
2022/12/24 03:32:28;;;;;;;44.80;40.20;;;;;;;7.06;79.55;99216.55;108516;1280;22184;-80
2022/12/24 03:35:15;;;;;;;43.00;38.10;;;;;;;7.10;79.65;99215.53;108420;1280;21959;-82
2022/12/24 03:38:08;;;;;;;41.50;37.20;;;;;;;7.08;79.50;99215.77;108350;1272;22421;-81
2022/12/24 03:40:51;;;;;;;42.90;38.50;;;;;;;7.05;79.47;99214.16;108160;1283;21983;-81
2022/12/24 03:43:26;;;;;;;41.50;37.30;;;;;;;7.01;79.43;99216.91;108369;1283;21952;-81
2022/12/24 03:46:11;;;;;;;41.80;37.40;;;;;;;6.98;79.44;99214.96;108399;1272;21990;-80
2022/12/24 03:48:58;;;;;;;42.80;38.50;;;;;;;6.95;79.43;99215.95;108486;1281;21945;-82
2022/12/24 03:51:32;;;;;;;41.30;37.20;;;;;;;6.92;79.54;99218.32;108238;1284;21994;-81
2022/12/24 03:54:08;;;;;;;39.80;35.80;;;;;;;6.94;79.69;99224.30;108330;1283;21948;-82
2022/12/24 03:56:48;;;;;;;41.50;37.20;;;;;;;6.99;79.84;99228.43;108410;1273;22076;-82
2022/12/24 03:59:20;;;;;;;41.90;37.70;;;;;;;7.05;79.76;99225.59;108036;1289;21984;-80
2022/12/24 04:01:50;;;;;;;39.80;35.60;;;;;;;7.08;79.63;99225.98;107822;1289;23877;-81
2022/12/24 04:04:26;;;;;;;43.50;37.60;;;;;;;7.09;79.61;99224.88;107996;1287;22039;-81
2022/12/24 04:06:58;;;;;;;42.30;37.70;;;;;;;7.11;79.55;99220.66;108032;1289;22042;-80
2022/12/24 04:09:30;;;;;;;43.40;39.00;;;;;;;7.10;79.43;99220.35;108245;1280;21970;-82
2022/12/24 04:12:09;;;;;;;45.30;40.80;;;;;;;7.08;79.37;99220.63;108503;1280;23753;-82
2022/12/24 04:14:47;;;;;;;46.50;41.60;;;;;;;7.04;79.41;99219.37;108124;1279;23711;-81
2022/12/24 04:17:30;;;;;;;46.70;41.80;;;;;;;7.00;79.42;99215.23;107755;1289;23179;-82
2022/12/24 04:20:04;;;;;;;47.50;42.70;;;;;;;6.99;79.42;99217.36;107724;1290;21956;-83
2022/12/24 04:22:39;;;;;;;46.40;41.70;;;;;;;6.97;79.40;99215.85;107791;1280;23768;-82
2022/12/24 04:25:12;;;;;;;45.30;40.50;;;;;;;6.95;79.43;99217.65;107790;1289;21967;-82
2022/12/24 04:28:10;;;;;;;46.70;41.50;;;;;;;6.93;79.41;99222.08;107486;1292;23147;-82
2022/12/24 04:31:21;;;;;;;44.80;40.10;;;;;;;6.95;79.57;99223.38;107600;1292;21947;-81
2022/12/24 04:33:53;;;;;;;42.70;38.00;;;;;;;6.98;79.55;99225.16;107529;1292;22912;-82
2022/12/24 04:36:27;;;;;;;40.90;36.70;;;;;;;6.98;79.56;99223.08;107994;1286;21963;-82
2022/12/24 04:39:00;;;;;;;39.20;35.20;;;;;;;7.00;79.55;99227.14;108201;1283;23163;-81
2022/12/24 04:41:36;;;;;;;38.70;34.90;;;;;;;7.03;79.51;99228.61;108425;1283;21945;-80
2022/12/24 04:44:15;;;;;;;43.20;39.10;;;;;;;7.04;79.50;99230.12;108193;1283;22527;-81
2022/12/24 04:46:51;;;;;;;42.20;37.90;;;;;;;7.04;79.49;99228.38;108413;1282;21921;-81
2022/12/24 04:49:22;;;;;;;42.50;38.30;;;;;;;7.07;79.57;99225.67;108351;1281;22402;-80
2022/12/24 04:51:54;;;;;;;42.40;38.20;;;;;;;7.07;79.52;99226.04;108499;1277;21935;-80
2022/12/24 04:54:24;;;;;;;43.80;39.10;;;;;;;7.07;79.37;99230.50;108761;1278;22042;-80
2022/12/24 04:56:57;;;;;;;43.30;38.80;;;;;;;7.06;79.32;99229.35;108766;1278;22743;-80
2022/12/24 04:59:27;;;;;;;43.20;38.90;;;;;;;7.06;79.34;99226.58;108802;1277;24955;-80
2022/12/24 05:01:58;;;;;;;46.80;42.00;;;;;;;7.07;79.37;99231.71;108713;1278;21930;-80
2022/12/24 05:04:34;;;;;;;39.90;36.00;;;;;;;7.04;79.38;99234.78;108780;1277;21930;-82
2022/12/24 05:07:06;;;;;;;39.30;35.40;;;;;;;7.03;79.39;99231.73;108727;1277;24356;-81
2022/12/24 05:09:39;;;;;;;40.10;36.30;;;;;;;7.02;79.41;99230.02;108750;1278;21906;-79
2022/12/24 05:12:09;;;;;;;42.90;38.50;;;;;;;7.03;79.35;99227.39;108851;1278;21921;-80
2022/12/24 05:14:39;;;;;;;44.30;40.00;;;;;;;7.01;79.28;99226.77;108719;1275;21898;-81
2022/12/24 05:17:11;;;;;;;45.90;41.40;;;;;;;7.00;79.33;99230.30;108766;1278;21939;-80
2022/12/24 05:19:42;;;;;;;46.20;41.70;;;;;;;7.00;79.42;99233.38;108468;1282;21960;-80
2022/12/24 05:27:53;;;;;;;;;;;;;;;7.03;79.56;99244.34;108558;1283;23605;-82
2022/12/24 05:30:23;;;;;;;46.20;41.40;;;;;;;6.98;79.73;99252.70;108594;1276;23065;-83
2022/12/24 05:32:53;;;;;;;44.60;40.20;;;;;;;6.98;79.69;99253.19;108411;1283;21961;-80
2022/12/24 05:35:29;;;;;;;44.30;40.20;;;;;;;7.02;79.71;99254.24;108445;1270;23572;-81
2022/12/24 05:38:00;;;;;;;43.20;38.90;;;;;;;7.04;79.56;99248.42;108125;1286;22084;-81
2022/12/24 05:40:32;;;;;;;40.50;36.70;;;;;;;7.04;79.38;99251.91;107925;1286;21959;-82
2022/12/24 05:43:08;;;;;;;40.60;36.40;;;;;;;7.01;79.30;99251.88;107963;1286;21941;-82
2022/12/24 05:45:43;;;;;;;42.70;38.30;;;;;;;6.98;79.32;99255.44;108208;1283;23612;-83
2022/12/24 05:48:14;;;;;;;42.10;37.80;;;;;;;6.99;79.43;99258.84;108386;1281;21946;-81
2022/12/24 05:50:44;;;;;;;42.70;38.60;;;;;;;7.02;79.46;99266.16;108357;1283;23031;-81
2022/12/24 05:53:13;;;;;;;43.70;39.10;;;;;;;7.03;79.35;99270.64;108404;1284;21930;-82
2022/12/24 05:55:43;;;;;;;40.20;36.00;;;;;;;7.01;79.33;99271.56;108158;1281;21989;-81
2022/12/24 05:58:14;;;;;;;36.60;32.80;;;;;;;7.01;79.32;99274.54;108463;1281;21884;-81
2022/12/24 06:02:01;;;;;;;35.10;31.60;;;;;;;6.98;79.13;99278.27;108504;1281;21984;-85
2022/12/24 06:25:47;;;;;;;24.50;21.90;;;;;;;6.53;79.61;99316.31;106417;1296;22003;-84
2022/12/24 06:29:11;;;;;;;23.20;20.60;;;;;;;6.52;79.74;99319.15;106034;1310;23171;-85
2022/12/24 06:31:40;;;;;;;26.90;23.30;;;;;;;6.51;79.67;99320.20;105787;1310;21970;-80
2022/12/24 06:34:15;;;;;;;22.70;20.30;;;;;;;6.51;79.49;99324.89;105955;1310;22398;-82
2022/12/24 06:36:42;;;;;;;26.10;22.70;;;;;;;6.52;79.65;99326.08;106015;1297;23739;-81
2022/12/24 06:39:17;;;;;;;23.60;21.20;;;;;;;6.50;79.36;99326.46;105730;1310;23759;-80
2022/12/24 06:41:45;;;;;;;21.80;19.50;;;;;;;6.49;79.41;99332.73;105696;1310;23903;-81
2022/12/24 06:44:12;;;;;;;24.20;21.20;;;;;;;6.48;79.36;99336.20;105823;1307;21963;-81
2022/12/24 06:46:42;;;;;;;15.20;13.80;;;;;;;6.47;79.48;99334.88;105717;1307;21956;-81
2022/12/24 06:49:24;;;;;;;22.80;20.40;;;;;;;6.40;79.36;99338.21;105940;1304;24558;-79
2022/12/24 06:51:58;;;;;;;26.90;24.20;;;;;;;6.38;79.42;99343.48;107226;1298;23632;-78
2022/12/24 06:54:34;;;;;;;30.60;27.30;;;;;;;6.37;79.49;99346.29;107466;1287;22001;-80
2022/12/24 06:57:05;;;;;;;22.70;20.40;;;;;;;6.40;79.57;99351.56;108212;1286;21939;-80
2022/12/24 06:59:36;;;;;;;21.40;18.60;;;;;;;6.40;79.55;99356.55;108058;1283;21939;-79
2022/12/24 07:02:06;;;;;;;23.20;20.80;;;;;;;6.39;79.46;99358.34;108221;1283;23007;-79
2022/12/24 07:04:39;;;;;;;28.40;25.70;;;;;;;6.38;79.54;99357.50;108394;1275;21921;-80
2022/12/24 07:07:08;;;;;;;30.00;27.10;;;;;;;6.36;79.41;99358.45;108632;1275;21946;-79
2022/12/24 07:09:41;;;;;;;30.30;27.30;;;;;;;6.32;79.37;99362.89;108601;1275;22058;-79
2022/12/24 07:12:11;;;;;;;29.10;25.90;;;;;;;6.29;79.41;99363.53;108811;1275;21921;-80
2022/12/24 07:14:41;;;;;;;25.40;21.90;;;;;;;6.30;79.58;99367.29;108810;1275;21935;-79
2022/12/24 07:17:12;;;;;;;21.20;18.90;;;;;;;6.32;79.51;99373.80;108482;1276;21935;-79
2022/12/24 07:19:42;;;;;;;21.60;19.30;;;;;;;6.31;79.47;99377.11;107854;1286;24105;-80
2022/12/24 07:22:11;;;;;;;21.60;18.40;;;;;;;6.29;79.37;99380.28;107825;1287;24484;-79
2022/12/24 07:24:46;;;;;;;17.70;15.30;;;;;;;6.29;79.54;99387.72;107452;1292;23682;-79
2022/12/24 07:27:16;;;;;;;19.50;16.80;;;;;;;6.28;79.42;99395.35;107474;1292;22011;-78
2022/12/24 07:29:49;;;;;;;20.00;18.00;;;;;;;6.27;79.39;99398.00;107502;1292;21955;-81
2022/12/24 07:32:20;;;;;;;19.00;17.20;;;;;;;6.23;79.28;99398.48;107735;1292;21996;-80
2022/12/24 07:34:49;;;;;;;20.30;18.10;;;;;;;6.20;79.30;99406.15;107438;1289;22001;-80
2022/12/24 07:37:19;;;;;;;20.20;16.60;;;;;;;6.22;79.45;99416.14;107865;1281;23606;-80
2022/12/24 07:39:49;;;;;;;20.60;18.40;;;;;;;6.19;79.33;99419.66;108462;1283;22204;-80
2022/12/24 07:42:18;;;;;;;22.20;17.80;;;;;;;6.16;79.33;99427.38;108547;1275;21930;-79
2022/12/24 07:44:48;;;;;;;22.00;19.70;;;;;;;6.18;79.49;99432.14;108561;1280;22998;-81
2022/12/24 07:47:18;;;;;;;23.70;21.30;;;;;;;6.22;79.56;99435.98;108557;1268;21939;-79
2022/12/24 07:49:48;;;;;;;21.50;18.60;;;;;;;6.22;79.36;99441.16;108506;1281;24291;-80
2022/12/24 07:52:18;;;;;;;23.40;20.70;;;;;;;6.19;79.25;99440.56;108458;1281;22020;-79
2022/12/24 07:54:48;;;;;;;27.60;24.00;;;;;;;6.16;79.30;99444.81;107953;1286;21945;-79
2022/12/24 07:57:18;;;;;;;22.60;20.20;;;;;;;6.17;79.38;99450.86;107946;1285;23061;-79
2022/12/24 07:59:47;;;;;;;24.90;22.00;;;;;;;6.15;79.33;99456.79;108263;1272;23063;-80
2022/12/24 08:02:17;;;;;;;23.90;21.40;;;;;;;6.17;79.43;99463.98;108229;1285;22345;-80
2022/12/24 08:04:48;;;;;;;22.90;19.40;;;;;;;6.19;79.40;99464.07;108531;1286;21954;-80
2022/12/24 08:07:24;;;;;;;22.40;20.10;;;;;;;6.21;79.45;99466.97;108352;1281;23621;-80
2022/12/24 08:09:53;;;;;;;29.30;22.30;;;;;;;6.24;79.53;99472.89;108201;1283;22890;-80
2022/12/24 08:12:23;;;;;;;25.10;22.50;;;;;;;6.26;79.41;99476.48;108465;1278;21951;-81
2022/12/24 08:14:53;;;;;;;30.10;24.10;;;;;;;6.27;79.51;99478.16;108550;1283;21949;-82
2022/12/24 08:17:23;;;;;;;25.80;23.10;;;;;;;6.29;79.46;99480.15;108631;1281;21980;-82
2022/12/24 08:20:00;;;;;;;31.80;27.90;;;;;;;6.30;79.41;99488.25;108577;1283;22809;-81
2022/12/24 08:22:30;;;;;;;31.00;27.70;;;;;;;6.31;79.30;99492.89;108510;1284;24285;-82
2022/12/24 08:25:00;;;;;;;28.60;25.70;;;;;;;6.31;79.33;99497.71;108237;1283;22592;-82
2022/12/24 08:27:32;;;;;;;27.90;25.00;;;;;;;6.32;79.28;99504.09;108452;1285;23112;-81
2022/12/24 08:30:04;;;;;;;25.70;23.10;;;;;;;6.34;79.36;99510.73;108483;1284;21948;-81
2022/12/24 08:32:34;;;;;;;25.80;21.70;;;;;;;6.35;79.25;99516.06;108117;1281;21937;-82
2022/12/24 08:35:05;;;;;;;26.30;23.50;;;;;;;6.36;79.34;99518.13;108364;1286;21950;-83
2022/12/24 08:37:35;;;;;;;30.00;25.70;;;;;;;6.38;79.38;99520.11;108346;1282;21940;-83
2022/12/24 08:40:06;;;;;;;31.10;26.80;;;;;;;6.41;79.47;99527.95;108291;1287;21953;-82
2022/12/24 08:42:36;;;;;;;31.00;27.70;;;;;;;6.44;79.43;99535.47;108353;1286;21965;-81
2022/12/24 08:45:07;;;;;;;31.00;27.70;;;;;;;6.47;79.40;99541.42;108227;1286;21960;-82
2022/12/24 08:47:38;;;;;;;30.20;27.10;;;;;;;6.49;79.35;99544.81;107938;1289;21977;-81
2022/12/24 08:50:08;;;;;;;28.80;25.80;;;;;;;6.47;79.06;99550.40;107913;1287;22105;-81
2022/12/24 08:52:38;;;;;;;33.50;30.00;;;;;;;6.43;79.08;99551.90;108036;1283;21960;-80
2022/12/24 08:55:08;;;;;;;33.70;30.10;;;;;;;6.43;79.05;99554.16;107954;1289;21969;-82
2022/12/24 08:57:38;;;;;;;32.70;29.30;;;;;;;6.43;79.08;99560.58;107678;1292;22650;-82
2022/12/24 09:00:10;;;;;;;43.00;35.80;;;;;;;6.42;78.97;99565.27;107367;1292;21962;-81
2022/12/24 09:02:41;;;;;;;46.50;35.70;;;;;;;6.39;78.81;99575.70;106834;1300;22003;-83
2022/12/24 09:05:11;;;;;;;35.00;30.60;;;;;;;6.40;78.99;99580.71;107020;1294;22754;-81
2022/12/24 09:07:40;;;;;;;30.20;26.80;;;;;;;6.40;78.84;99583.48;107455;1296;23149;-82
2022/12/24 09:10:11;;;;;;;34.00;28.50;;;;;;;6.40;78.88;99585.38;107457;1292;23638;-86
2022/12/24 09:12:42;;;;;;;31.70;27.20;;;;;;;6.36;78.77;99587.56;107794;1292;23037;-80
2022/12/24 09:15:13;;;;;;;34.20;29.00;;;;;;;6.33;78.81;99588.02;107996;1286;21971;-80
2022/12/24 09:17:46;;;;;;;36.50;30.60;;;;;;;6.33;78.82;99595.98;108228;1286;22786;-82
2022/12/24 09:20:21;;;;;;;32.90;29.30;;;;;;;6.34;79.03;99601.09;107983;1283;22005;-81
2022/12/24 09:22:50;;;;;;;32.10;27.40;;;;;;;6.38;79.03;99604.10;108021;1284;22175;-81
2022/12/24 09:25:20;;;;;;;30.80;26.70;;;;;;;6.39;78.92;99610.97;108411;1281;22463;-80
2022/12/24 09:27:52;;;;;;;31.30;27.70;;;;;;;6.41;78.89;99615.59;108438;1277;22044;-80
2022/12/24 09:30:22;;;;;;;35.30;30.40;;;;;;;6.43;78.93;99617.26;108536;1283;23682;-80
2022/12/24 09:32:54;;;;;;;32.80;27.50;;;;;;;6.43;78.82;99622.27;108588;1281;22708;-81
2022/12/24 09:35:27;;;;;;;30.00;26.70;;;;;;;6.39;78.69;99626.36;108423;1274;22587;-80
2022/12/24 09:38:02;;;;;;;31.40;27.60;;;;;;;6.39;78.83;99626.87;108672;1281;22044;-80
2022/12/24 09:40:40;;;;;;;27.20;23.30;;;;;;;6.39;78.81;99624.81;108603;1280;21943;-80
2022/12/24 09:43:20;;;;;;;29.30;24.80;;;;;;;6.38;78.89;99628.47;108645;1281;21932;-82
2022/12/24 09:46:13;;;;;;;27.10;23.20;;;;;;;6.42;79.11;99633.02;108848;1275;21950;-82
2022/12/24 09:48:52;;;;;;;27.80;24.30;;;;;;;6.47;79.14;99633.38;108969;1275;22808;-83
2022/12/24 09:51:52;;;;;;;27.90;23.70;;;;;;;6.52;79.17;99635.14;108841;1275;21966;-83
2022/12/24 09:54:33;;;;;;;28.40;23.90;;;;;;;6.52;78.94;99635.30;108880;1266;21919;-82
2022/12/24 09:57:28;;;;;;;31.00;25.70;;;;;;;6.51;78.88;99639.64;109000;1275;21946;-79
2022/12/24 10:00:02;;;;;;;31.40;27.30;;;;;;;6.50;78.92;99643.30;108969;1277;21973;-79
2022/12/24 10:02:41;;;;;;;33.70;28.60;;;;;;;6.52;78.91;99651.88;108666;1274;21929;-80
2022/12/24 10:05:25;;;;;;;31.60;26.20;;;;;;;6.51;78.80;99656.05;108792;1281;21958;-80
2022/12/24 10:09:01;;;;;;;32.50;26.60;;;;;;;6.51;78.79;99666.45;108623;1279;21933;-80
2022/12/24 10:11:43;;;;;;;29.00;22.90;;;;;;;6.52;79.01;99671.05;107971;1292;22034;-81
2022/12/24 10:14:47;;;;;;;25.60;21.60;;;;;;;6.59;78.95;99676.54;107743;1291;21957;-82
2022/12/24 10:17:46;;;;;;;27.90;21.80;;;;;;;6.59;79.08;99678.44;107703;1293;21970;-81
2022/12/24 10:21:04;;;;;;;19.50;17.50;;;;;;;6.65;79.17;99683.27;107929;1286;21953;-81
2022/12/24 10:23:52;;;;;;;22.60;19.90;;;;;;;6.69;79.06;99691.77;107311;1293;22515;-80
2022/12/24 10:26:32;;;;;;;26.30;20.90;;;;;;;6.71;78.82;99700.21;107292;1295;21985;-80
2022/12/24 10:29:19;;;;;;;22.90;20.50;;;;;;;6.73;78.73;99698.74;107125;1292;21938;-80
2022/12/24 10:32:06;;;;;;;22.90;19.80;;;;;;;6.75;78.60;99706.29;104635;1289;4140180;-81
2022/12/24 10:34:42;;;;;;;21.40;18.60;;;;;;;6.75;78.63;99706.10;108005;1278;21986;-81
2022/12/24 10:37:30;;;;;;;27.10;24.20;;;;;;;6.81;78.54;99723.92;107761;1292;22346;-82
2022/12/24 10:40:04;;;;;;;20.90;18.80;;;;;;;6.82;78.42;99730.61;107834;1287;21962;-81
2022/12/24 10:42:45;;;;;;;21.20;19.00;;;;;;;6.81;78.21;99737.55;107573;1289;23097;-80
2022/12/24 10:45:25;;;;;;;26.00;20.80;;;;;;;6.78;78.14;99738.19;107259;1283;22254;-81
2022/12/24 10:48:07;;;;;;;28.30;23.70;;;;;;;6.78;78.15;99745.13;107632;1289;23106;-84
2022/12/24 10:50:53;;;;;;;22.70;20.00;;;;;;;6.80;78.20;99747.13;108023;1289;23517;-83
2022/12/24 10:53:46;;;;;;;24.10;20.30;;;;;;;6.81;78.18;99749.66;107987;1289;22005;-82
2022/12/24 10:56:18;;;;;;;25.70;20.50;;;;;;;6.83;78.26;99750.48;108189;1289;23632;-80
2022/12/24 10:58:55;;;;;;;26.10;21.80;;;;;;;6.88;78.23;99752.73;107941;1289;23622;-80
2022/12/24 11:01:47;;;;;;;25.80;23.00;;;;;;;6.93;78.40;99755.70;108424;1281;22419;-81
2022/12/24 11:04:21;;;;;;;23.40;20.30;;;;;;;6.97;78.34;99756.95;108748;1277;24105;-82
2022/12/24 11:07:04;;;;;;;23.70;21.10;;;;;;;6.97;78.15;99763.20;108914;1278;23152;-82
2022/12/24 11:09:42;;;;;;;24.70;21.90;;;;;;;7.02;78.19;99769.08;108862;1279;21908;-81
2022/12/24 11:12:25;;;;;;;27.30;22.00;;;;;;;7.06;78.04;99770.15;108907;1275;23062;-84
2022/12/24 11:15:33;;;;;;;27.00;23.00;;;;;;;7.10;78.03;99770.73;108999;1273;21930;-84
2022/12/24 11:18:14;;;;;;;21.50;19.30;;;;;;;7.07;77.67;99769.60;109011;1267;21925;-84
2022/12/24 11:20:51;;;;;;;27.00;24.30;;;;;;;7.05;77.62;99771.91;108914;1270;21929;-85
2022/12/24 11:23:24;;;;;;;25.60;22.30;;;;;;;7.06;77.55;99768.95;108658;1283;21954;-79
2022/12/24 11:26:07;;;;;;;30.50;25.90;;;;;;;7.05;77.34;99772.77;108565;1284;21933;-80
2022/12/24 11:33:52;;;;;;;29.20;25.50;;;;;;;6.90;77.23;99787.97;108362;1281;21951;-83
2022/12/24 11:36:26;;;;;;;28.10;21.50;;;;;;;6.86;77.30;99791.72;108448;1283;23061;-81
2022/12/24 11:38:57;;;;;;;28.60;24.50;;;;;;;6.88;77.36;99797.55;108541;1283;24420;-80
2022/12/24 11:41:36;;;;;;;33.70;26.50;;;;;;;6.90;77.41;99800.24;108421;1280;22468;-80
2022/12/24 11:44:09;;;;;;;30.30;24.90;;;;;;;6.89;77.19;99800.45;108922;1274;23048;-82
2022/12/24 11:46:45;;;;;;;24.50;21.60;;;;;;;6.88;77.22;99804.29;108946;1278;22695;-84
2022/12/24 11:49:29;;;;;;;28.70;25.20;;;;;;;6.90;77.27;99808.74;109013;1278;21943;-81
2022/12/24 11:52:20;;;;;;;44.60;34.30;;;;;;;6.88;77.14;99810.16;108903;1279;21943;-85
2022/12/24 11:55:13;;;;;;;;;;;;;;;6.81;76.88;99817.13;108954;1279;23675;-85
2022/12/24 11:58:12;;;;;;;44.50;30.00;;;;;;;6.67;77.20;99821.36;108952;1279;21950;-82
2022/12/24 12:00:45;;;;;;;45.50;30.70;;;;;;;6.64;77.22;99821.43;108975;1279;23704;-81
2022/12/24 12:03:28;;;;;;;32.10;25.70;;;;;;;6.67;77.38;99822.05;108808;1279;23157;-83
2022/12/24 12:06:02;;;;;;;37.20;30.50;;;;;;;6.73;77.48;99827.23;108852;1277;23046;-83
2022/12/24 12:08:34;;;;;;;37.20;30.40;;;;;;;6.79;77.50;99829.12;108889;1280;21938;-81
2022/12/24 12:11:10;;;;;;;;;;;;;;;6.84;77.50;99830.33;108760;1279;22369;-81
2022/12/24 12:13:43;;;;;;;43.80;35.00;;;;;;;6.79;77.63;99835.33;108980;1274;22327;-81
2022/12/24 12:16:24;;;;;;;49.40;39.70;;;;;;;6.82;77.55;99840.42;108853;1279;22991;-83
2022/12/24 12:19:03;;;;;;;44.90;39.00;;;;;;;6.87;77.49;99844.96;108764;1278;23666;-81
2022/12/24 12:21:46;;;;;;;33.70;29.10;;;;;;;6.90;77.48;99843.65;108655;1278;23060;-81
2022/12/24 12:24:28;;;;;;;46.60;33.90;;;;;;;6.91;77.25;99841.38;108264;1284;21944;-84
2022/12/24 12:27:22;;;;;;;34.80;27.80;;;;;;;6.91;77.15;99847.27;108095;1283;22006;-84
2022/12/24 12:30:03;;;;;;;38.10;31.00;;;;;;;6.92;77.18;99847.94;108252;1289;22457;-81
2022/12/24 12:32:56;;;;;;;38.40;30.30;;;;;;;6.94;77.13;99850.80;108329;1284;22431;-85
2022/12/24 12:35:39;;;;;;;35.50;30.40;;;;;;;6.92;77.02;99857.80;108484;1273;21962;-83
2022/12/24 12:38:21;;;;;;;35.00;31.20;;;;;;;6.91;76.99;99865.09;108248;1281;21988;-81
2022/12/24 12:41:53;;;;;;;30.80;26.70;;;;;;;6.89;76.86;99869.81;108584;1284;22733;-84
2022/12/24 12:44:52;;;;;;;33.50;29.30;;;;;;;6.84;76.85;99872.73;108822;1282;21989;-81
2022/12/24 12:47:41;;;;;;;33.20;29.60;;;;;;;6.84;77.07;99874.96;108615;1282;21985;-82
2022/12/24 12:50:19;;;;;;;30.10;25.80;;;;;;;6.89;77.12;99884.34;108716;1275;22027;-80